createdAt,value
2023-02-17T00:01:26.174Z,16.33
2023-02-17T00:03:00.482Z,17.10
2023-02-17T00:04:34.934Z,17.30
2023-02-17T00:06:07.999Z,17.50
2023-02-17T00:07:42.816Z,17.88
2023-02-17T00:09:16.381Z,18.48
2023-02-17T00:10:57.696Z,21.13
2023-02-17T00:12:31.057Z,19.88
2023-02-17T00:14:04.746Z,22.60
2023-02-17T00:15:40.904Z,23.52
2023-02-17T00:17:14.304Z,20.92
2023-02-17T00:18:47.877Z,19.90
2023-02-17T00:20:21.550Z,20.60
2023-02-17T00:21:56.721Z,20.17
2023-02-17T00:23:30.131Z,20.13
2023-02-17T00:25:03.254Z,18.08
2023-02-17T00:26:36.737Z,19.38
2023-02-17T00:28:09.952Z,19.63
2023-02-17T00:29:43.278Z,19.85
2023-02-17T00:31:20.246Z,20.50
2023-02-17T00:32:53.624Z,18.80
2023-02-17T00:34:28.180Z,17.63
2023-02-17T00:36:05.526Z,19.30
2023-02-17T00:37:38.798Z,19.88
2023-02-17T00:39:15.234Z,18.33
2023-02-17T00:40:48.423Z,17.63
2023-02-17T00:42:21.784Z,20.25
2023-02-17T00:43:55.229Z,17.70
2023-02-17T00:45:28.663Z,18.95
2023-02-17T00:47:03.220Z,15.82
2023-02-17T00:48:36.495Z,16.25
2023-02-17T00:50:11.364Z,17.02
2023-02-17T00:51:44.926Z,18.20
2023-02-17T00:53:19.101Z,16.10
2023-02-17T00:54:52.643Z,15.75
2023-02-17T00:56:25.722Z,15.73
2023-02-17T00:57:59.002Z,15.93
2023-02-17T00:59:32.170Z,15.90
2023-02-17T01:01:06.549Z,15.50
2023-02-17T01:02:41.120Z,15.27
2023-02-17T01:04:14.687Z,14.57
2023-02-17T01:05:48.908Z,13.65
2023-02-17T01:07:22.299Z,14.20
2023-02-17T01:08:56.094Z,14.25
2023-02-17T01:10:29.488Z,14.75
2023-02-17T01:12:02.572Z,13.35
2023-02-17T01:13:37.007Z,12.48
2023-02-17T01:15:10.674Z,14.82
2023-02-17T01:16:47.345Z,13.50
2023-02-17T01:18:24.330Z,12.95
2023-02-17T01:19:58.906Z,13.18
2023-02-17T01:21:33.217Z,15.00
2023-02-17T01:23:07.355Z,13.55
2023-02-17T01:24:40.829Z,13.18
2023-02-17T01:26:18.048Z,14.32
2023-02-17T01:27:51.183Z,13.15
2023-02-17T01:29:23.442Z,13.85
2023-02-17T01:30:56.602Z,15.25
2023-02-17T01:32:30.512Z,13.93
2023-02-17T01:34:05.103Z,14.80
2023-02-17T01:35:38.495Z,13.55
2023-02-17T01:37:11.623Z,14.35
2023-02-17T01:38:46.508Z,15.25
2023-02-17T01:40:20.367Z,16.88
2023-02-17T01:41:52.796Z,14.27
2023-02-17T01:43:26.695Z,14.55
2023-02-17T01:45:35.228Z,15.45
2023-02-17T01:47:14.065Z,15.18
2023-02-17T01:48:51.111Z,14.32
2023-02-17T01:50:29.600Z,16.40
2023-02-17T01:52:11.761Z,16.00
2023-02-17T01:53:48.146Z,15.35
2023-02-17T01:55:23.245Z,14.90
2023-02-17T01:57:00.801Z,15.68
2023-02-17T01:58:35.108Z,14.57
2023-02-17T02:00:13.204Z,14.52
2023-02-17T02:01:46.962Z,13.63
2023-02-17T02:03:20.038Z,13.20
2023-02-17T02:04:54.607Z,13.73
2023-02-17T02:06:30.657Z,13.75
2023-02-17T02:08:06.237Z,14.45
2023-02-17T02:09:42.992Z,13.10
2023-02-17T02:11:16.189Z,12.75
2023-02-17T02:12:52.473Z,12.50
2023-02-17T02:14:25.756Z,14.98
2023-02-17T02:16:08.239Z,16.58
2023-02-17T02:17:53.918Z,15.63
2023-02-17T02:19:56.061Z,14.00
2023-02-17T02:22:02.030Z,13.02
2023-02-17T02:23:57.548Z,12.50
2023-02-17T02:25:57.173Z,22.27
2023-02-17T02:27:44.182Z,20.67
2023-02-17T02:29:59.704Z,15.13
2023-02-17T02:31:45.181Z,15.23
2023-02-17T02:33:25.764Z,23.02
2023-02-17T02:35:02.209Z,14.43
2023-02-17T02:36:41.979Z,13.43
2023-02-17T02:38:26.766Z,13.65
2023-02-17T02:40:04.814Z,13.32
2023-02-17T02:41:44.760Z,14.60
2023-02-17T02:43:20.265Z,13.05
2023-02-17T02:44:54.513Z,13.70
2023-02-17T02:46:27.883Z,14.73
2023-02-17T02:48:00.026Z,14.18
2023-02-17T02:49:38.411Z,15.00
2023-02-17T02:51:21.963Z,16.20
2023-02-17T02:53:09.806Z,14.65
2023-02-17T02:54:53.950Z,15.63
2023-02-17T02:56:40.986Z,16.45
2023-02-17T02:58:20.952Z,14.50
2023-02-17T03:00:13.186Z,15.90
2023-02-17T03:01:52.911Z,18.95
2023-02-17T03:03:36.338Z,21.70
2023-02-17T03:05:15.176Z,40.30
2023-02-17T03:06:54.065Z,54.95
2023-02-17T03:08:34.746Z,28.20
2023-02-17T03:10:09.243Z,26.90
2023-02-17T03:11:43.862Z,27.77
2023-02-17T03:13:17.029Z,23.60
2023-02-17T03:14:54.244Z,23.83
2023-02-17T03:16:29.366Z,20.67
2023-02-17T03:18:04.218Z,21.50
2023-02-17T03:19:38.237Z,19.05
2023-02-17T03:21:17.104Z,15.88
2023-02-17T03:22:50.809Z,18.58
2023-02-17T03:24:24.154Z,15.13
2023-02-17T03:25:59.037Z,15.38
2023-02-17T03:27:32.297Z,55.72
2023-02-17T03:29:06.048Z,22.00
2023-02-17T03:30:39.285Z,14.88
2023-02-17T03:32:13.260Z,16.77
2023-02-17T03:33:46.653Z,17.98
2023-02-17T03:35:20.851Z,18.02
2023-02-17T03:36:56.226Z,16.65
2023-02-17T03:38:29.545Z,15.90
2023-02-17T03:40:03.363Z,15.00
2023-02-17T03:41:36.912Z,15.82
2023-02-17T03:43:10.265Z,14.02
2023-02-17T03:44:43.516Z,15.68
2023-02-17T03:46:16.708Z,14.10
2023-02-17T03:47:50.378Z,13.90
2023-02-17T03:49:22.487Z,14.25
2023-02-17T03:50:56.162Z,14.07
2023-02-17T03:52:31.073Z,13.48
2023-02-17T03:54:04.528Z,13.60
2023-02-17T03:55:36.625Z,14.73
2023-02-17T03:57:09.950Z,14.63
2023-02-17T03:58:42.550Z,14.38
2023-02-17T04:00:17.236Z,15.13
2023-02-17T04:01:49.402Z,14.75
2023-02-17T04:03:22.702Z,14.13
2023-02-17T04:04:55.992Z,14.90
2023-02-17T04:06:29.721Z,14.27
2023-02-17T04:08:07.492Z,14.30
2023-02-17T04:09:40.935Z,15.20
2023-02-17T04:11:14.114Z,27.75
2023-02-17T04:12:47.475Z,22.70
2023-02-17T04:14:20.628Z,18.42
2023-02-17T04:15:54.666Z,25.80
2023-02-17T04:17:28.023Z,19.30
2023-02-17T04:19:01.965Z,25.27
2023-02-17T04:20:35.229Z,26.88
2023-02-17T04:22:09.108Z,25.52
2023-02-17T04:23:43.679Z,25.25
2023-02-17T04:25:17.043Z,23.60
2023-02-17T04:26:50.199Z,22.67
2023-02-17T04:28:23.446Z,19.75
2023-02-17T04:29:56.771Z,19.30
2023-02-17T04:31:30.291Z,15.82
2023-02-17T04:33:04.134Z,15.18
2023-02-17T04:34:37.894Z,12.60
2023-02-17T04:36:11.550Z,69.25
2023-02-17T04:37:45.826Z,19.33
2023-02-17T04:39:20.529Z,15.95
2023-02-17T04:40:54.557Z,17.20
2023-02-17T04:42:27.800Z,16.42
2023-02-17T04:44:01.089Z,18.25
2023-02-17T04:45:35.067Z,21.15
2023-02-17T04:47:09.146Z,18.05
2023-02-17T04:48:42.335Z,18.00
2023-02-17T04:50:16.186Z,16.77
2023-02-17T04:51:49.600Z,14.60
2023-02-17T04:53:22.835Z,14.73
2023-02-17T04:54:57.335Z,16.42
2023-02-17T04:56:30.694Z,15.43
2023-02-17T04:58:02.879Z,13.52
2023-02-17T04:59:36.210Z,12.65
2023-02-17T05:01:09.424Z,13.35
2023-02-17T05:02:42.840Z,15.48
2023-02-17T05:04:16.036Z,19.52
2023-02-17T05:05:50.520Z,14.10
2023-02-17T05:07:24.021Z,13.23
2023-02-17T05:08:57.315Z,14.15
2023-02-17T05:10:32.169Z,14.52
2023-02-17T05:12:06.399Z,14.85
2023-02-17T05:13:39.556Z,14.45
2023-02-17T05:15:13.880Z,14.48
2023-02-17T05:16:46.354Z,15.13
2023-02-17T05:18:19.799Z,16.92
2023-02-17T05:19:52.945Z,17.27
2023-02-17T05:21:26.330Z,21.83
2023-02-17T05:22:59.457Z,20.70
2023-02-17T05:24:33.045Z,18.70
2023-02-17T05:26:08.053Z,19.65
2023-02-17T05:27:41.598Z,34.80
2023-02-17T05:29:14.745Z,36.40
2023-02-17T05:30:49.757Z,34.65
2023-02-17T05:32:24.170Z,30.27
2023-02-17T05:33:57.698Z,32.92
2023-02-17T05:35:30.906Z,32.03
2023-02-17T05:37:03.315Z,23.52
2023-02-17T05:38:37.265Z,20.95
2023-02-17T05:40:11.398Z,22.40
2023-02-17T05:41:45.956Z,23.88
2023-02-17T05:43:19.358Z,20.13
2023-02-17T05:44:52.599Z,33.83
2023-02-17T05:46:25.869Z,29.75
2023-02-17T05:47:59.083Z,26.23
2023-02-17T05:49:32.456Z,41.70
2023-02-17T05:51:06.520Z,18.92
2023-02-17T05:52:39.969Z,21.13
2023-02-17T05:54:12.744Z,20.35
2023-02-17T05:55:48.526Z,21.77
2023-02-17T05:57:23.339Z,22.08
2023-02-17T05:58:56.654Z,25.70
2023-02-17T06:00:30.174Z,23.63
2023-02-17T06:02:03.588Z,23.95
2023-02-17T06:03:37.399Z,24.92
2023-02-17T06:05:11.305Z,26.30
2023-02-17T06:06:44.582Z,23.00
2023-02-17T06:08:18.084Z,22.83
2023-02-17T06:09:51.263Z,25.88
2023-02-17T06:11:24.469Z,21.30
2023-02-17T06:12:59.020Z,22.08
2023-02-17T06:14:31.328Z,21.33
2023-02-17T06:16:05.263Z,21.83
2023-02-17T06:17:39.271Z,20.70
2023-02-17T06:19:12.676Z,20.95
2023-02-17T06:20:46.361Z,19.48
2023-02-17T06:22:19.737Z,19.35
2023-02-17T06:23:52.927Z,17.73
2023-02-17T06:25:26.070Z,14.63
2023-02-17T06:26:59.329Z,14.80
2023-02-17T06:28:35.149Z,15.10
2023-02-17T06:30:10.072Z,14.48
2023-02-17T06:31:43.430Z,11.43
2023-02-17T06:33:16.917Z,13.43
2023-02-17T06:34:50.209Z,12.02
2023-02-17T06:36:23.399Z,11.75
2023-02-17T06:37:56.805Z,12.30
2023-02-17T06:39:30.154Z,12.50
2023-02-17T06:41:03.388Z,11.95
2023-02-17T06:42:36.785Z,12.05
2023-02-17T06:44:11.416Z,17.30
2023-02-17T06:45:44.778Z,16.08
2023-02-17T06:47:17.979Z,13.88
2023-02-17T06:48:51.371Z,16.52
2023-02-17T06:50:24.664Z,17.35
2023-02-17T06:51:57.950Z,20.42
2023-02-17T06:53:31.221Z,23.42
2023-02-17T06:55:04.608Z,18.85
2023-02-17T06:56:37.985Z,22.63
2023-02-17T06:58:11.120Z,23.42
2023-02-17T06:59:46.112Z,24.55
2023-02-17T07:01:21.545Z,25.50
2023-02-17T07:02:54.985Z,25.27
2023-02-17T07:04:28.258Z,23.77
2023-02-17T07:06:01.526Z,24.98
2023-02-17T07:07:35.171Z,22.05
2023-02-17T07:09:08.661Z,15.07
2023-02-17T07:10:42.001Z,14.25
2023-02-17T07:12:15.135Z,14.35
2023-02-17T07:13:49.197Z,12.57
2023-02-17T07:15:23.967Z,13.52
2023-02-17T07:16:57.182Z,13.27
2023-02-17T07:18:30.323Z,13.07
2023-02-17T07:20:03.774Z,13.80
2023-02-17T07:21:37.076Z,14.25
2023-02-17T07:23:10.257Z,14.95
2023-02-17T07:24:43.433Z,14.63
2023-02-17T07:26:16.760Z,14.82
2023-02-17T07:27:50.367Z,15.60
2023-02-17T07:29:23.794Z,19.95
2023-02-17T07:30:58.315Z,22.73
2023-02-17T07:32:31.759Z,23.38
2023-02-17T07:34:06.093Z,20.05
2023-02-17T07:35:44.947Z,20.10
2023-02-17T07:37:20.093Z,20.00
2023-02-17T07:38:53.320Z,20.23
2023-02-17T07:40:27.606Z,20.02
2023-02-17T07:42:01.160Z,18.30
2023-02-17T07:43:34.613Z,19.55
2023-02-17T07:45:10.064Z,20.55
2023-02-17T07:46:44.882Z,19.33
2023-02-17T07:48:18.014Z,18.90
2023-02-17T07:49:51.345Z,19.20
2023-02-17T07:51:24.838Z,21.13
2023-02-17T07:52:58.111Z,21.23
2023-02-17T07:54:31.244Z,22.15
2023-02-17T07:56:05.629Z,22.63
2023-02-17T07:57:39.376Z,21.92
2023-02-17T07:59:14.090Z,25.15
2023-02-17T08:00:47.231Z,23.58
2023-02-17T08:02:21.964Z,22.42
2023-02-17T08:03:55.713Z,23.70
2023-02-17T08:05:30.364Z,24.75
2023-02-17T08:07:03.435Z,22.27
2023-02-17T08:08:54.064Z,22.73
2023-02-17T08:10:45.073Z,27.58
2023-02-17T08:12:37.811Z,26.15
2023-02-17T08:14:13.052Z,22.17
2023-02-17T08:15:47.214Z,15.15
2023-02-17T08:17:21.818Z,18.33
2023-02-17T08:18:55.567Z,22.23
2023-02-17T08:20:28.932Z,15.85
2023-02-17T08:22:02.378Z,18.15
2023-02-17T08:23:35.606Z,16.35
2023-02-17T08:25:09.136Z,13.73
2023-02-17T08:26:42.335Z,14.20
2023-02-17T08:28:15.707Z,14.80
2023-02-17T08:29:49.146Z,13.82
2023-02-17T08:31:25.119Z,16.10
2023-02-17T08:32:59.733Z,13.65
2023-02-17T08:34:34.192Z,14.95
2023-02-17T08:36:08.503Z,12.38
2023-02-17T08:37:41.952Z,15.48
2023-02-17T08:39:17.503Z,15.25
2023-02-17T08:40:50.796Z,12.48
2023-02-17T08:42:24.259Z,12.68
2023-02-17T08:43:57.832Z,13.93
2023-02-17T08:45:31.695Z,13.27
2023-02-17T08:47:08.963Z,12.75
2023-02-17T08:48:44.470Z,14.13
2023-02-17T08:50:17.738Z,14.98
2023-02-17T08:51:51.372Z,15.02
2023-02-17T08:53:25.163Z,13.25
2023-02-17T08:54:58.359Z,12.90
2023-02-17T08:56:31.673Z,12.52
2023-02-17T08:58:04.838Z,12.18
2023-02-17T08:59:38.235Z,13.00
2023-02-17T09:01:12.371Z,11.57
2023-02-17T09:02:46.099Z,11.98
2023-02-17T09:04:20.710Z,11.82
2023-02-17T09:05:55.744Z,11.80
2023-02-17T09:07:29.539Z,13.38
2023-02-17T09:09:02.724Z,11.77
2023-02-17T09:10:36.162Z,11.50
2023-02-17T09:12:09.977Z,12.82
2023-02-17T09:13:43.251Z,13.07
2023-02-17T09:15:16.372Z,11.68
2023-02-17T09:16:49.503Z,13.77
2023-02-17T09:18:23.280Z,12.43
2023-02-17T09:19:58.007Z,9.95
2023-02-17T09:21:31.678Z,13.13
2023-02-17T09:23:04.970Z,10.93
2023-02-17T09:24:40.425Z,13.45
2023-02-17T09:26:15.275Z,12.55
2023-02-17T09:27:48.520Z,11.82
2023-02-17T09:29:21.869Z,11.93
2023-02-17T09:30:55.459Z,12.23
2023-02-17T09:32:28.850Z,9.90
2023-02-17T09:34:02.162Z,9.85
2023-02-17T09:35:38.764Z,9.40
2023-02-17T09:37:13.412Z,10.27
2023-02-17T09:38:47.436Z,8.38
2023-02-17T09:40:23.258Z,9.43
2023-02-17T09:41:57.853Z,11.30
2023-02-17T09:43:33.675Z,12.07
2023-02-17T09:45:12.940Z,12.98
2023-02-17T09:47:01.289Z,12.48
2023-02-17T09:48:37.412Z,13.77
2023-02-17T09:50:15.401Z,8.75
2023-02-17T09:51:56.171Z,7.50
2023-02-17T09:53:36.439Z,4.00
2023-02-17T09:55:14.759Z,4.50
2023-02-17T09:56:52.385Z,4.38
2023-02-17T09:58:28.874Z,5.40
2023-02-17T10:00:09.082Z,5.10
2023-02-17T10:01:47.400Z,5.18
2023-02-17T10:03:25.213Z,5.45
2023-02-17T10:05:01.927Z,6.30
2023-02-17T10:06:38.537Z,5.47
2023-02-17T10:08:18.596Z,5.20
2023-02-17T10:09:55.057Z,4.78
2023-02-17T10:11:32.771Z,5.55
2023-02-17T10:13:07.609Z,6.38
2023-02-17T10:14:46.211Z,5.40
2023-02-17T10:16:24.505Z,4.80
2023-02-17T10:18:05.804Z,3.63
2023-02-17T10:19:49.107Z,4.63
2023-02-17T10:21:28.671Z,3.75
2023-02-17T10:23:08.437Z,5.72
2023-02-17T10:24:42.969Z,5.68
2023-02-17T10:26:27.475Z,5.47
2023-02-17T10:28:09.037Z,3.40
2023-02-17T10:29:52.347Z,4.15
2023-02-17T10:31:37.023Z,4.03
2023-02-17T10:33:15.492Z,3.72
2023-02-17T10:35:05.276Z,3.95
2023-02-17T10:36:52.415Z,3.70
2023-02-17T10:38:40.780Z,4.43
2023-02-17T10:40:19.529Z,4.45
2023-02-17T10:41:56.554Z,4.55
2023-02-17T10:43:32.872Z,4.50
2023-02-17T10:45:09.399Z,4.35
2023-02-17T10:46:45.008Z,5.45
2023-02-17T10:48:23.373Z,5.10
2023-02-17T10:49:58.439Z,5.20
2023-02-17T10:51:33.159Z,4.63
2023-02-17T10:53:15.270Z,3.38
2023-02-17T10:54:53.912Z,2.80
2023-02-17T10:56:35.619Z,4.32
2023-02-17T10:58:16.035Z,5.78
2023-02-17T10:59:50.584Z,5.57
2023-02-17T11:01:24.472Z,4.78
2023-02-17T11:02:57.654Z,3.60
2023-02-17T11:04:42.800Z,3.88
2023-02-17T11:06:22.353Z,3.13
2023-02-17T11:08:02.127Z,4.05
2023-02-17T11:09:36.425Z,5.13
2023-02-17T11:11:18.262Z,5.57
2023-02-17T11:12:55.912Z,4.18
2023-02-17T11:14:31.641Z,5.03
2023-02-17T11:16:06.176Z,5.13
2023-02-17T11:17:41.029Z,3.42
2023-02-17T11:19:24.560Z,3.20
2023-02-17T11:21:08.289Z,5.15
2023-02-17T11:22:45.840Z,3.35
2023-02-17T11:24:19.346Z,3.90
2023-02-17T11:26:04.652Z,3.92
2023-02-17T11:27:38.938Z,4.72
2023-02-17T11:29:22.326Z,3.85
2023-02-17T11:30:57.545Z,3.47
2023-02-17T11:32:32.839Z,6.28
2023-02-17T11:34:16.792Z,3.75
2023-02-17T11:35:55.032Z,3.72
2023-02-17T11:37:32.365Z,4.15
2023-02-17T11:39:18.786Z,5.82
2023-02-17T11:40:58.113Z,4.35
2023-02-17T11:42:33.291Z,4.50
2023-02-17T11:44:10.139Z,3.42
2023-02-17T11:45:55.663Z,7.90
2023-02-17T11:47:40.651Z,8.95
2023-02-17T11:49:47.138Z,13.48
2023-02-17T11:51:24.648Z,14.15
2023-02-17T11:53:09.903Z,62.88
2023-02-17T11:54:52.408Z,10.10
2023-02-17T11:56:31.155Z,5.78
2023-02-17T11:58:18.918Z,5.18
2023-02-17T12:00:05.806Z,5.40
2023-02-17T12:02:18.287Z,4.00
2023-02-17T12:04:35.593Z,4.70
2023-02-17T12:06:15.729Z,4.63
2023-02-17T12:08:04.134Z,3.53
2023-02-17T12:09:49.281Z,4.40
2023-02-17T12:11:32.294Z,4.68
2023-02-17T12:13:20.800Z,3.55
2023-02-17T12:15:04.253Z,5.20
2023-02-17T12:16:47.380Z,3.90
2023-02-17T12:18:38.221Z,4.35
2023-02-17T12:20:29.817Z,2.45
2023-02-17T12:22:14.886Z,3.33
2023-02-17T12:24:06.932Z,10.98
2023-02-17T12:25:46.458Z,16.42
2023-02-17T12:27:33.075Z,7.38
2023-02-17T12:29:19.325Z,25.70
2023-02-17T12:31:02.584Z,10.43
2023-02-17T12:32:49.668Z,4.05
2023-02-17T12:34:31.322Z,8.70
2023-02-17T12:36:09.356Z,5.38
2023-02-17T12:37:49.170Z,4.13
2023-02-17T12:39:26.229Z,4.15
2023-02-17T12:41:08.118Z,3.70
2023-02-17T12:42:47.351Z,3.78
2023-02-17T12:44:24.709Z,2.85
2023-02-17T12:46:01.456Z,2.90
2023-02-17T12:47:45.354Z,3.53
2023-02-17T12:49:24.727Z,3.17
2023-02-17T12:51:06.813Z,3.10
2023-02-17T12:52:42.222Z,3.60
2023-02-17T12:54:22.087Z,4.32
2023-02-17T12:55:58.633Z,3.38
2023-02-17T12:57:42.823Z,2.05
2023-02-17T12:59:19.390Z,2.63
2023-02-17T13:00:59.872Z,4.40
2023-02-17T13:02:33.343Z,2.70
2023-02-17T13:04:06.610Z,1.65
2023-02-17T13:05:45.861Z,2.67
2023-02-17T13:07:41.847Z,1.00
2023-02-17T13:09:25.482Z,3.13
2023-02-17T13:11:03.858Z,8.07
2023-02-17T13:12:41.652Z,5.70
2023-02-17T13:14:27.210Z,1.38
2023-02-17T13:16:06.223Z,3.50
2023-02-17T13:17:42.123Z,3.90
2023-02-17T13:19:16.319Z,3.92
2023-02-17T13:21:01.589Z,4.72
2023-02-17T13:22:36.664Z,4.22
2023-02-17T13:24:16.649Z,3.78
2023-02-17T13:26:19.750Z,6.18
2023-02-17T13:27:53.267Z,2.53
2023-02-17T13:29:37.035Z,5.22
2023-02-17T13:31:14.271Z,5.28
2023-02-17T13:32:47.472Z,5.15
2023-02-17T13:34:32.878Z,4.95
2023-02-17T13:36:14.394Z,4.82
2023-02-17T13:37:49.241Z,4.03
2023-02-17T13:39:37.753Z,5.65
2023-02-17T13:41:15.267Z,4.57
2023-02-17T13:42:49.527Z,3.63
2023-02-17T13:44:29.795Z,3.70
2023-02-17T13:46:05.813Z,3.63
2023-02-17T13:47:41.214Z,2.67
2023-02-17T13:49:22.649Z,2.22
2023-02-17T13:50:58.090Z,3.53
2023-02-17T13:52:33.367Z,3.80
2023-02-17T13:54:10.132Z,4.35
2023-02-17T13:55:43.273Z,4.70
2023-02-17T13:57:25.451Z,5.20
2023-02-17T13:59:08.945Z,5.85
2023-02-17T14:00:44.617Z,5.15
2023-02-17T14:02:35.165Z,5.25
2023-02-17T14:04:21.164Z,8.55
2023-02-17T14:05:56.292Z,7.10
2023-02-17T14:07:29.494Z,8.40
2023-02-17T14:09:19.866Z,4.10
2023-02-17T14:10:53.594Z,4.85
2023-02-17T14:12:31.514Z,5.20
2023-02-17T14:14:07.799Z,9.80
2023-02-17T14:15:52.087Z,10.20
2023-02-17T14:17:33.374Z,20.17
2023-02-17T14:19:09.167Z,24.20
2023-02-17T14:20:42.466Z,19.50
2023-02-17T14:22:28.871Z,36.20
2023-02-17T14:24:02.403Z,28.30
2023-02-17T14:25:39.565Z,10.95
2023-02-17T14:27:14.301Z,8.32
2023-02-17T14:28:55.029Z,11.07
2023-02-17T14:30:34.229Z,8.25
2023-02-17T14:32:07.989Z,9.25
2023-02-17T14:33:41.394Z,7.88
2023-02-17T14:35:23.432Z,8.35
2023-02-17T14:37:08.407Z,8.68
2023-02-17T14:38:43.469Z,7.30
2023-02-17T14:40:20.432Z,10.60
2023-02-17T14:41:54.921Z,7.15
2023-02-17T14:43:28.757Z,6.95
2023-02-17T14:45:02.087Z,8.80
2023-02-17T14:46:36.065Z,6.78
2023-02-17T14:48:09.496Z,6.53
2023-02-17T14:49:42.812Z,8.23
2023-02-17T14:51:17.806Z,7.10
2023-02-17T14:52:52.416Z,10.02
2023-02-17T14:54:27.433Z,7.13
2023-02-17T14:56:06.045Z,7.57
2023-02-17T14:57:40.817Z,7.82
2023-02-17T14:59:13.964Z,8.18
2023-02-17T15:00:47.533Z,4.70
2023-02-17T15:02:22.402Z,8.23
2023-02-17T15:03:55.831Z,8.93
2023-02-17T15:05:29.828Z,7.00
2023-02-17T15:07:03.360Z,8.60
2023-02-17T15:08:37.377Z,8.32
2023-02-17T15:10:26.100Z,7.78
2023-02-17T15:11:59.693Z,9.43
2023-02-17T15:13:34.436Z,8.52
2023-02-17T15:15:08.245Z,7.93
2023-02-17T15:16:41.826Z,8.80
2023-02-17T15:18:16.847Z,13.43
2023-02-17T15:19:50.185Z,9.55
2023-02-17T15:21:27.906Z,8.25
2023-02-17T15:23:01.643Z,11.35
2023-02-17T15:24:36.645Z,10.55
2023-02-17T15:26:10.935Z,10.43
2023-02-17T15:27:47.441Z,11.35
2023-02-17T15:29:25.074Z,9.55
2023-02-17T15:30:58.570Z,9.32
2023-02-17T15:32:31.984Z,9.50
2023-02-17T15:34:13.212Z,10.25
2023-02-17T15:35:54.710Z,11.25
2023-02-17T15:37:28.257Z,11.25
2023-02-17T15:39:01.766Z,9.18
2023-02-17T15:40:35.446Z,8.48
2023-02-17T15:42:14.279Z,10.00
2023-02-17T15:43:49.731Z,11.65
2023-02-17T15:45:26.968Z,12.63
2023-02-17T15:47:00.344Z,14.75
2023-02-17T15:48:34.707Z,15.85
2023-02-17T15:50:18.178Z,15.18
2023-02-17T15:51:53.681Z,15.65
2023-02-17T15:53:26.910Z,18.20
2023-02-17T15:55:00.568Z,27.90
2023-02-17T15:56:45.482Z,25.67
2023-02-17T15:58:22.595Z,24.52
2023-02-17T15:59:57.624Z,23.95
2023-02-17T16:01:34.177Z,33.25
2023-02-17T16:03:07.394Z,33.88
2023-02-17T16:04:40.634Z,30.80
2023-02-17T16:06:14.519Z,34.00
2023-02-17T16:07:48.206Z,34.78
2023-02-17T16:09:21.899Z,36.05
2023-02-17T16:10:55.958Z,33.03
2023-02-17T16:12:29.382Z,34.15
2023-02-17T16:14:03.078Z,31.95
2023-02-17T16:15:37.592Z,38.45
2023-02-17T16:17:16.790Z,30.75
2023-02-17T16:18:50.568Z,29.55
2023-02-17T16:20:25.036Z,31.33
2023-02-17T16:21:58.562Z,33.70
2023-02-17T16:23:31.834Z,32.55
2023-02-17T16:25:05.477Z,38.55
2023-02-17T16:26:40.060Z,54.08
2023-02-17T16:28:16.653Z,43.38
2023-02-17T16:29:50.456Z,43.55
2023-02-17T16:31:24.230Z,57.42
2023-02-17T16:33:00.254Z,59.47
2023-02-17T16:34:35.094Z,50.75
2023-02-17T16:36:15.887Z,48.78
2023-02-17T16:37:54.345Z,40.65
2023-02-17T16:39:28.057Z,48.65
2023-02-17T16:41:01.222Z,54.80
2023-02-17T16:42:34.554Z,102.45
2023-02-17T16:44:07.909Z,70.68
2023-02-17T16:45:50.010Z,139.10
2023-02-17T16:47:24.152Z,114.07
2023-02-17T16:48:59.857Z,127.18
2023-02-17T16:50:35.367Z,118.60
2023-02-17T16:52:21.715Z,111.75
2023-02-17T16:53:55.294Z,107.38
2023-02-17T16:55:30.731Z,101.95
2023-02-17T16:57:04.041Z,110.85
2023-02-17T16:58:37.686Z,128.32
2023-02-17T17:00:13.502Z,104.70
2023-02-17T17:01:47.714Z,106.70
2023-02-17T17:03:22.404Z,91.80
2023-02-17T17:04:57.590Z,257.17
2023-02-17T17:06:52.195Z,107.65
2023-02-17T17:08:25.385Z,79.20
2023-02-17T17:10:15.353Z,75.05
2023-02-17T17:11:50.147Z,62.65
2023-02-17T17:13:23.826Z,45.78
2023-02-17T17:14:57.310Z,39.13
2023-02-17T17:16:34.973Z,27.70
2023-02-17T17:18:10.164Z,34.83
2023-02-17T17:19:44.078Z,38.38
2023-02-17T17:21:20.613Z,28.40
2023-02-17T17:22:54.016Z,27.58
2023-02-17T17:24:27.236Z,28.90
2023-02-17T17:26:00.708Z,27.27
2023-02-17T17:27:34.135Z,23.25
2023-02-17T17:29:08.863Z,24.05
2023-02-17T23:56:53.755Z,16.42
2023-02-17T23:58:26.074Z,19.40
2023-02-17T23:59:59.346Z,19.92
